createdAt,value
2022-11-25T00:01:45.988Z,98482.66
2022-11-25T00:04:13.184Z,98489.72
2022-11-25T00:06:40.253Z,98482.88
2022-11-25T00:09:07.345Z,98487.97
2022-11-25T00:11:34.451Z,98490.78
2022-11-25T00:14:01.509Z,98484.66
2022-11-25T00:16:28.720Z,98488.19
2022-11-25T00:18:55.842Z,98492.44
2022-11-25T00:21:22.959Z,98484.78
2022-11-25T00:23:50.035Z,98486.53
2022-11-25T00:26:17.137Z,98484.88
2022-11-25T00:28:44.292Z,98489.22
2022-11-25T00:31:11.385Z,98487.38
2022-11-25T00:33:38.536Z,98487.38
2022-11-25T00:36:05.602Z,98485.59
2022-11-25T00:38:32.668Z,98483.09
2022-11-25T00:41:18.756Z,98492.66
2022-11-25T00:44:04.376Z,98491.94
2022-11-25T00:46:31.460Z,98487.69
2022-11-25T00:48:58.537Z,98480.75
2022-11-25T00:51:25.631Z,98497.16
2022-11-25T00:53:58.589Z,98495.47
2022-11-25T00:56:26.133Z,98499.00
2022-11-25T00:58:53.227Z,98500.78
2022-11-25T01:01:20.398Z,98498.31
2022-11-25T01:03:47.537Z,98497.34
2022-11-25T01:06:14.623Z,98494.75
2022-11-25T01:08:41.684Z,98496.41
2022-11-25T01:11:08.772Z,98500.03
2022-11-25T01:13:35.852Z,98489.66
2022-11-25T01:16:03.047Z,98500.03
2022-11-25T01:18:30.168Z,98499.13
2022-11-25T01:20:57.286Z,98494.84
2022-11-25T01:23:24.354Z,98496.53
2022-11-25T01:25:51.428Z,98492.38
2022-11-25T01:28:18.522Z,98495.91
2022-11-25T01:30:45.598Z,98494.16
2022-11-25T01:33:12.721Z,98494.25
2022-11-25T01:35:39.797Z,98489.91
2022-11-25T01:38:06.852Z,98494.25
2022-11-25T01:40:33.938Z,98493.31
2022-11-25T01:43:01.045Z,98495.91
2022-11-25T01:45:28.898Z,98496.00
2022-11-25T01:47:56.066Z,98503.91
2022-11-25T01:50:23.132Z,98497.78
2022-11-25T01:52:50.254Z,98488.22
2022-11-25T01:55:17.344Z,98497.16
2022-11-25T01:57:44.411Z,98492.91
2022-11-25T02:00:11.493Z,98498.94
2022-11-25T02:02:38.646Z,98498.09
2022-11-25T02:05:05.803Z,98497.28
2022-11-25T02:07:33.082Z,98501.66
2022-11-25T02:10:00.335Z,98499.88
2022-11-25T02:12:27.427Z,98501.53
2022-11-25T02:14:54.485Z,98500.09
2022-11-25T02:17:21.622Z,98501.75
2022-11-25T02:19:48.701Z,98498.22
2022-11-25T02:22:15.834Z,98499.25
2022-11-25T02:24:42.908Z,98501.84
2022-11-25T02:27:09.981Z,98494.78
2022-11-25T02:29:37.052Z,98493.34
2022-11-25T02:32:04.209Z,98502.88
2022-11-25T02:34:31.324Z,98497.38
2022-11-25T02:36:58.409Z,98493.34
2022-11-25T02:39:25.481Z,98489.09
2022-11-25T02:41:52.549Z,98492.72
2022-11-25T02:44:20.324Z,98493.34
2022-11-25T02:46:47.469Z,98491.69
2022-11-25T02:49:14.599Z,98492.50
2022-11-25T02:51:41.759Z,98495.22
2022-11-25T02:54:08.811Z,98501.25
2022-11-25T02:56:35.890Z,98494.41
2022-11-25T02:59:02.980Z,98494.41
2022-11-25T03:01:31.390Z,98494.47
2022-11-25T03:03:58.702Z,98496.25
2022-11-25T03:06:25.787Z,98501.44
2022-11-25T03:08:52.897Z,98497.81
2022-11-25T03:11:19.971Z,98500.63
2022-11-25T03:13:47.046Z,98505.81
2022-11-25T03:16:14.220Z,98504.16
2022-11-25T03:18:41.367Z,98512.66
2022-11-25T03:21:08.496Z,98510.25
2022-11-25T03:23:35.565Z,98514.53
2022-11-25T03:26:02.638Z,98506.84
2022-11-25T03:28:29.791Z,98506.84
2022-11-25T03:30:56.902Z,98498.44
2022-11-25T03:33:24.034Z,98510.38
2022-11-25T03:35:51.197Z,98506.75
2022-11-25T03:38:18.318Z,98504.25
2022-11-25T03:40:47.273Z,98506.03
2022-11-25T03:43:14.354Z,98505.31
2022-11-25T03:45:41.485Z,98510.50
2022-11-25T03:48:08.996Z,98500.13
2022-11-25T03:50:36.068Z,98497.53
2022-11-25T03:53:03.154Z,98499.38
2022-11-25T03:55:30.223Z,98503.88
2022-11-25T03:57:57.356Z,98498.56
2022-11-25T04:00:24.949Z,98504.56
2022-11-25T04:02:52.060Z,98501.28
2022-11-25T04:05:19.562Z,98509.06
2022-11-25T04:07:46.723Z,98500.31
2022-11-25T04:10:14.015Z,98511.66
2022-11-25T04:12:47.082Z,98505.53
2022-11-25T04:15:14.240Z,98498.69
2022-11-25T04:17:41.328Z,98505.72
2022-11-25T04:20:08.417Z,98497.81
2022-11-25T04:22:35.480Z,98497.13
2022-11-25T04:25:02.577Z,98492.75
2022-11-25T04:27:29.837Z,98491.94
2022-11-25T04:29:56.905Z,98494.41
2022-11-25T04:32:23.972Z,98491.94
2022-11-25T04:34:51.033Z,98492.75
2022-11-25T04:37:18.119Z,98493.78
2022-11-25T04:39:45.211Z,98492.97
2022-11-25T04:42:41.439Z,98501.69
2022-11-25T04:45:24.387Z,98498.88
2022-11-25T04:47:51.818Z,98488.72
2022-11-25T04:50:19.003Z,98485.16
2022-11-25T04:52:46.111Z,98488.59
2022-11-25T04:55:13.191Z,98491.31
2022-11-25T04:57:40.339Z,98493.78
2022-11-25T05:00:07.459Z,98485.38
2022-11-25T05:02:34.685Z,98490.47
2022-11-25T05:05:01.791Z,98507.00
2022-11-25T05:07:28.994Z,98498.34
2022-11-25T05:09:56.341Z,98496.69
2022-11-25T05:12:23.441Z,98494.84
2022-11-25T05:14:50.554Z,98504.47
2022-11-25T05:17:17.733Z,98493.41
2022-11-25T05:19:46.056Z,98486.31
2022-11-25T05:22:13.193Z,98488.22
2022-11-25T05:24:40.257Z,98501.91
2022-11-25T05:27:07.324Z,98490.69
2022-11-25T05:29:34.413Z,98495.88
2022-11-25T05:32:01.558Z,98489.75
2022-11-25T05:34:28.637Z,98486.44
2022-11-25T05:36:55.756Z,98483.09
2022-11-25T05:39:22.866Z,98491.84
2022-11-25T05:41:49.949Z,98492.53
2022-11-25T05:44:22.422Z,98496.91
2022-11-25T05:46:50.213Z,98497.03
2022-11-25T05:49:17.303Z,98497.84
2022-11-25T05:51:44.378Z,98510.72
2022-11-25T05:54:11.454Z,98501.28
2022-11-25T05:56:38.866Z,98499.50
2022-11-25T05:59:05.977Z,98498.88
2022-11-25T06:01:33.210Z,98498.88
2022-11-25T06:04:00.322Z,98500.66
2022-11-25T06:06:27.494Z,98501.47
2022-11-25T06:08:54.557Z,98505.84
2022-11-25T06:11:21.617Z,98500.66
2022-11-25T06:13:48.719Z,98509.25
2022-11-25T06:16:15.835Z,98502.53
2022-11-25T06:18:42.918Z,98505.22
2022-11-25T06:21:10.030Z,98509.38
2022-11-25T06:23:37.130Z,98507.59
2022-11-25T06:26:04.238Z,98505.13
2022-11-25T06:28:31.292Z,98507.59
2022-11-25T06:30:58.383Z,98505.13
2022-11-25T06:33:25.478Z,98510.41
2022-11-25T06:35:52.554Z,98516.41
2022-11-25T06:38:19.616Z,98512.28
2022-11-25T06:40:46.689Z,98521.72
2022-11-25T06:43:13.763Z,98526.09
2022-11-25T06:45:40.825Z,98529.41
2022-11-25T06:48:07.889Z,98528.56
2022-11-25T06:50:34.954Z,98534.69
2022-11-25T06:53:02.017Z,98538.13
2022-11-25T06:55:29.091Z,98531.28
2022-11-25T06:58:13.934Z,98540.84
2022-11-25T07:00:43.215Z,98543.44
2022-11-25T07:03:10.335Z,98550.47
2022-11-25T07:05:37.441Z,98552.22
2022-11-25T07:08:04.498Z,98548.81
2022-11-25T07:10:31.565Z,98551.28
2022-11-25T07:12:59.481Z,98558.25
2022-11-25T07:15:26.548Z,98563.44
2022-11-25T07:17:53.618Z,98567.69
2022-11-25T07:20:20.682Z,98572.16
2022-11-25T07:22:47.742Z,98575.47
2022-11-25T07:25:14.824Z,98569.56
2022-11-25T07:27:41.890Z,98558.44
2022-11-25T07:31:09.365Z,98565.41
2022-11-25T07:32:56.070Z,98573.09
2022-11-25T07:35:23.146Z,98575.69
2022-11-25T07:37:50.227Z,98585.97
2022-11-25T07:40:17.316Z,98580.88
2022-11-25T07:42:44.593Z,98591.34
2022-11-25T07:45:11.726Z,98593.84
2022-11-25T07:47:38.854Z,98588.66
2022-11-25T07:50:05.929Z,98592.09
2022-11-25T07:52:33.170Z,98591.47
2022-11-25T07:55:00.258Z,98595.63
2022-11-25T07:57:27.478Z,98593.94
2022-11-25T07:59:54.533Z,98605.16
2022-11-25T08:02:21.729Z,98602.47
2022-11-25T08:04:48.919Z,98606.00
2022-11-25T08:07:16.040Z,98608.59
2022-11-25T08:09:43.148Z,98604.00
2022-11-25T08:12:10.245Z,98597.91
2022-11-25T08:14:37.305Z,98598.81
2022-11-25T08:17:06.598Z,98595.41
2022-11-25T08:19:33.706Z,98604.00
2022-11-25T08:22:00.834Z,98598.81
2022-11-25T08:24:28.225Z,98592.72
2022-11-25T08:26:58.585Z,98591.88
2022-11-25T08:29:25.653Z,98582.53
2022-11-25T08:31:52.767Z,98586.78
2022-11-25T08:34:20.009Z,98597.16
2022-11-25T08:36:48.892Z,98592.59
2022-11-25T08:39:44.212Z,98594.38
2022-11-25T08:42:04.556Z,98593.63
2022-11-25T08:44:31.651Z,98603.09
2022-11-25T08:46:58.925Z,98609.09
2022-11-25T08:49:27.021Z,98603.81
2022-11-25T08:51:54.137Z,98610.69
2022-11-25T08:54:21.198Z,98613.16
2022-11-25T08:56:48.321Z,98614.19
2022-11-25T08:59:15.389Z,98616.69
2022-11-25T09:01:42.731Z,98615.88
2022-11-25T09:04:09.873Z,98621.56
2022-11-25T09:06:36.966Z,98614.22
2022-11-25T09:09:06.057Z,98609.53
2022-11-25T09:11:33.246Z,98609.22
2022-11-25T09:14:00.427Z,98614.22
2022-11-25T09:16:28.498Z,98607.25
2022-11-25T09:18:56.470Z,98615.66
2022-11-25T09:21:25.135Z,98622.41
2022-11-25T09:23:52.677Z,98616.19
2022-11-25T09:26:19.769Z,98621.47
2022-11-25T09:28:46.843Z,98614.31
2022-11-25T09:31:14.320Z,98613.38
2022-11-25T09:33:41.447Z,98617.31
2022-11-25T09:36:08.522Z,98616.59
2022-11-25T09:38:42.813Z,98611.91
2022-11-25T09:41:10.273Z,98614.09
2022-11-25T09:43:56.213Z,98616.69
2022-11-25T09:46:41.894Z,98617.53
2022-11-25T09:49:09.015Z,98616.50
2022-11-25T09:51:36.349Z,98618.25
2022-11-25T09:54:03.411Z,98615.56
2022-11-25T09:56:30.522Z,98621.47
2022-11-25T09:58:57.583Z,98622.41
2022-11-25T10:01:24.706Z,98625.72
2022-11-25T10:03:51.777Z,98622.41
2022-11-25T10:06:18.939Z,98613.69
2022-11-25T10:08:46.089Z,98611.09
2022-11-25T10:11:13.160Z,98623.84
2022-11-25T10:13:40.236Z,98612.63
2022-11-25T10:16:07.386Z,98609.41
2022-11-25T10:18:34.507Z,98609.94
2022-11-25T10:21:01.581Z,98606.50
2022-11-25T10:23:28.807Z,98607.22
2022-11-25T10:25:55.971Z,98612.22
2022-11-25T10:28:23.106Z,98621.66
2022-11-25T10:30:50.950Z,98625.81
2022-11-25T10:33:18.139Z,98619.81
2022-11-25T10:35:45.215Z,98614.81
2022-11-25T10:38:17.480Z,98606.09
2022-11-25T10:40:46.204Z,98600.91
2022-11-25T10:43:14.076Z,98602.34
2022-11-25T10:45:41.235Z,98597.47
2022-11-25T10:48:08.297Z,98592.91
2022-11-25T10:50:35.357Z,98582.50
2022-11-25T10:53:02.488Z,98579.91
2022-11-25T10:55:29.552Z,98585.22
2022-11-25T10:57:56.638Z,98582.50
2022-11-25T11:00:23.821Z,98588.31
2022-11-25T11:02:50.944Z,98592.59
2022-11-25T11:05:18.281Z,98597.75
2022-11-25T11:07:45.391Z,98591.00
2022-11-25T11:10:12.509Z,98587.78
2022-11-25T11:12:39.576Z,98588.41
2022-11-25T11:15:06.636Z,98585.69
2022-11-25T11:17:36.759Z,98578.84
2022-11-25T11:20:04.474Z,98587.47
2022-11-25T11:22:31.558Z,98590.06
2022-11-25T11:24:58.624Z,98588.41
2022-11-25T11:27:25.692Z,98591.00
2022-11-25T11:29:52.765Z,98585.81
2022-11-25T11:32:19.853Z,98592.78
2022-11-25T11:34:47.071Z,98591.69
2022-11-25T11:37:14.142Z,98591.81
2022-11-25T11:39:41.215Z,98590.25
2022-11-25T11:42:08.291Z,98590.06
2022-11-25T11:44:35.575Z,98594.41
2022-11-25T11:47:03.059Z,98591.63
2022-11-25T11:49:30.885Z,98599.63
2022-11-25T11:51:58.731Z,98594.53
2022-11-25T11:54:25.824Z,98596.19
2022-11-25T11:56:55.528Z,98606.47
2022-11-25T11:59:22.862Z,98598.66
2022-11-25T12:01:49.981Z,98607.28
2022-11-25T12:04:17.079Z,98601.88
2022-11-25T12:06:44.189Z,98597.75
2022-11-25T12:09:11.254Z,98596.59
2022-11-25T12:11:38.330Z,98589.84
2022-11-25T12:14:05.506Z,98594.09
2022-11-25T12:16:32.794Z,98595.88
2022-11-25T12:18:59.918Z,98591.41
2022-11-25T12:21:26.999Z,98599.81
2022-11-25T12:23:54.907Z,98591.41
2022-11-25T12:26:22.441Z,98593.06
2022-11-25T12:28:49.498Z,98592.22
2022-11-25T12:31:16.676Z,98588.81
2022-11-25T12:33:43.810Z,98598.25
2022-11-25T12:36:11.238Z,98605.94
2022-11-25T12:38:38.395Z,98616.44
2022-11-25T12:41:05.450Z,98600.03
2022-11-25T12:43:32.534Z,98603.31
2022-11-25T12:45:59.678Z,98609.34
2022-11-25T12:48:27.702Z,98607.28
2022-11-25T12:50:54.873Z,98612.47
2022-11-25T12:53:24.285Z,98614.25
2022-11-25T12:55:51.377Z,98620.69
2022-11-25T12:58:18.506Z,98624.84
2022-11-25T13:00:46.554Z,98630.53
2022-11-25T13:03:14.286Z,98632.19
2022-11-25T13:05:41.497Z,98632.31
2022-11-25T13:08:08.574Z,98630.44
2022-11-25T13:10:35.741Z,98637.38
2022-11-25T13:13:03.123Z,98640.72
2022-11-25T13:15:31.024Z,98638.53
2022-11-25T13:17:58.403Z,98655.06
2022-11-25T13:20:25.530Z,98656.03
2022-11-25T13:22:53.283Z,98654.13
2022-11-25T13:25:20.371Z,98652.81
2022-11-25T13:27:47.479Z,98657.38
2022-11-25T13:30:14.538Z,98664.66
2022-11-25T13:32:42.330Z,98672.47
2022-11-25T13:35:09.441Z,98668.59
2022-11-25T13:37:36.860Z,98669.84
2022-11-25T13:40:04.039Z,98669.00
2022-11-25T13:42:31.205Z,98675.25
2022-11-25T13:44:58.286Z,98670.78
2022-11-25T13:47:25.365Z,98673.47
2022-11-25T13:49:52.430Z,98676.06
2022-11-25T13:52:19.504Z,98676.06
2022-11-25T13:54:46.561Z,98676.19
2022-11-25T13:57:13.631Z,98676.28
2022-11-25T13:59:40.707Z,98680.66
2022-11-25T14:02:07.850Z,98694.69
2022-11-25T14:04:35.203Z,98690.13
2022-11-25T14:07:02.507Z,98686.56
2022-11-25T14:09:29.573Z,98689.69
2022-11-25T14:11:56.653Z,98691.13
2022-11-25T14:14:23.828Z,98702.47
2022-11-25T14:16:51.021Z,98703.63
2022-11-25T14:22:05.255Z,98714.75
2022-11-25T14:24:32.441Z,98718.88
2022-11-25T14:26:59.499Z,98718.56
2022-11-25T14:29:28.277Z,98715.91
2022-11-25T14:31:55.868Z,98714.13
2022-11-25T14:34:22.998Z,98724.41
2022-11-25T14:36:50.066Z,98723.38
2022-11-25T14:39:17.147Z,98730.09
2022-11-25T14:41:44.328Z,98731.66
2022-11-25T14:44:11.618Z,98734.38
2022-11-25T14:46:38.694Z,98734.16
2022-11-25T14:49:18.934Z,98738.50
2022-11-25T14:51:54.180Z,98740.84
2022-11-25T14:54:21.767Z,98744.03
2022-11-25T14:56:49.159Z,98747.72
2022-11-25T14:59:16.238Z,98752.56
2022-11-25T15:01:43.314Z,98759.97
2022-11-25T15:04:10.501Z,98758.72
2022-11-25T15:06:37.630Z,98760.25
2022-11-25T15:09:04.699Z,98764.34
2022-11-25T15:11:32.059Z,98761.66
2022-11-25T15:13:59.199Z,98761.22
2022-11-25T15:16:30.035Z,98761.22
2022-11-25T15:18:57.186Z,98766.72
2022-11-25T15:21:24.261Z,98763.91
2022-11-25T15:23:51.334Z,98763.38
2022-11-25T15:26:18.646Z,98769.19
2022-11-25T15:28:45.918Z,98772.22
2022-11-25T15:31:13.129Z,98773.06
2022-11-25T15:33:40.259Z,98776.28
2022-11-25T15:36:07.387Z,98777.75
2022-11-25T15:38:34.738Z,98777.53
2022-11-25T15:41:01.802Z,98779.41
2022-11-25T15:43:29.806Z,98787.81
2022-11-25T15:45:57.762Z,98789.28
2022-11-25T15:48:24.924Z,98798.09
2022-11-25T15:50:51.992Z,98800.38
2022-11-25T15:53:23.384Z,98804.84
2022-11-25T15:55:51.922Z,98803.69
2022-11-25T15:58:19.006Z,98804.44
2022-11-25T16:00:46.341Z,98797.13
2022-11-25T16:03:13.478Z,98810.13
2022-11-25T16:05:40.576Z,98812.69
2022-11-25T16:08:07.654Z,98816.13
2022-11-25T16:10:34.894Z,98818.50
2022-11-25T16:13:01.988Z,98821.13
2022-11-25T16:15:29.089Z,98827.28
2022-11-25T16:18:06.863Z,98824.47
2022-11-25T16:20:43.261Z,98825.28
2022-11-25T16:23:10.328Z,98829.31
2022-11-25T16:25:37.405Z,98833.38
2022-11-25T16:28:04.475Z,98831.81
2022-11-25T16:30:34.683Z,98833.78
2022-11-25T16:33:01.754Z,98835.44
2022-11-25T16:35:28.828Z,98833.44
2022-11-25T16:37:55.898Z,98830.75
2022-11-25T16:40:23.245Z,98843.78
2022-11-25T16:42:50.415Z,98847.19
2022-11-25T16:45:17.515Z,98849.81
2022-11-25T16:47:44.579Z,98853.84
2022-11-25T16:50:14.241Z,98852.16
2022-11-25T16:52:41.537Z,98860.81
2022-11-25T16:55:08.625Z,98860.22
2022-11-25T16:57:35.692Z,98864.66
2022-11-25T17:00:07.782Z,98867.78
2022-11-25T17:02:34.983Z,98876.53
2022-11-25T17:05:02.122Z,98874.44
2022-11-25T17:07:33.708Z,98875.69
2022-11-25T17:10:01.197Z,98877.16
2022-11-25T17:12:28.265Z,98882.25
2022-11-25T17:14:55.428Z,98879.53
2022-11-25T17:17:24.441Z,98879.31
2022-11-25T17:19:51.945Z,98877.44
2022-11-25T17:22:19.081Z,98886.91
2022-11-25T17:24:46.452Z,98883.91
2022-11-25T17:27:13.529Z,98895.97
2022-11-25T17:29:40.842Z,98901.66
2022-11-25T17:32:08.221Z,98917.28
2022-11-25T17:34:39.388Z,98909.38
2022-11-25T17:37:06.695Z,98918.63
2022-11-25T17:39:33.773Z,98917.78
2022-11-25T17:42:02.292Z,98926.44
2022-11-25T17:44:29.400Z,98928.81
2022-11-25T17:46:56.529Z,98931.31
2022-11-25T17:49:23.640Z,98928.50
2022-11-25T17:51:50.737Z,98944.06
2022-11-25T17:54:17.872Z,98948.09
2022-11-25T17:56:50.580Z,98944.25
2022-11-25T17:59:19.466Z,98953.63
2022-11-25T18:01:46.790Z,98941.72
2022-11-25T18:04:16.371Z,98952.25
2022-11-25T18:06:43.987Z,98950.97
2022-11-25T18:09:11.353Z,98959.81
2022-11-25T18:11:42.509Z,98960.72
2022-11-25T18:14:12.543Z,98967.06
2022-11-25T18:16:41.394Z,98972.00
2022-11-25T18:19:08.557Z,98972.84
2022-11-25T18:21:35.627Z,98984.56
2022-11-25T18:24:02.799Z,98979.22
2022-11-25T18:26:29.912Z,98977.44
2022-11-25T18:28:56.974Z,98982.25
2022-11-25T18:31:24.214Z,98982.03
2022-11-25T18:33:51.366Z,98982.28
2022-11-25T18:36:18.526Z,98990.09
2022-11-25T18:38:48.293Z,98991.75
2022-11-25T18:41:15.397Z,98991.53
2022-11-25T18:43:42.477Z,98995.81
2022-11-25T18:46:09.792Z,98997.59
2022-11-25T18:48:37.113Z,99005.47
2022-11-25T18:51:04.919Z,99012.78
2022-11-25T18:53:33.538Z,99012.47
2022-11-25T18:56:00.634Z,99009.31
2022-11-25T18:58:35.447Z,99011.22
2022-11-25T19:01:03.201Z,99017.13
2022-11-25T19:03:30.421Z,99028.59
2022-11-25T19:05:59.469Z,99034.84
2022-11-25T19:08:26.572Z,99034.53
2022-11-25T19:10:53.688Z,99038.06
2022-11-25T19:13:20.767Z,99046.09
2022-11-25T19:15:47.978Z,99055.47
2022-11-25T19:18:15.767Z,99057.03
2022-11-25T19:20:42.902Z,99066.84
2022-11-25T19:23:10.049Z,99073.28
2022-11-25T19:25:37.161Z,99072.53
2022-11-25T19:28:04.227Z,99085.59
2022-11-25T19:30:31.303Z,99086.44
2022-11-25T19:32:58.385Z,99086.63
2022-11-25T19:35:25.473Z,99095.91
2022-11-25T19:37:52.555Z,99099.13
2022-11-25T19:40:19.683Z,99108.81
2022-11-25T19:42:48.522Z,99115.06
2022-11-25T19:45:15.954Z,99119.81
2022-11-25T19:47:43.073Z,99125.56
2022-11-25T19:50:10.153Z,99122.28
2022-11-25T19:52:37.973Z,99116.88
2022-11-25T19:55:05.057Z,99124.97
2022-11-25T19:57:32.146Z,99128.31
2022-11-25T19:59:59.653Z,99127.84
2022-11-25T20:02:27.222Z,99134.63
2022-11-25T20:04:55.702Z,99134.53
2022-11-25T20:07:22.963Z,99134.63
2022-11-25T20:09:51.500Z,99148.47
2022-11-25T20:12:19.077Z,99144.13
2022-11-25T20:14:46.496Z,99152.38
2022-11-25T20:17:13.610Z,99149.03
2022-11-25T20:19:40.694Z,99149.09
2022-11-25T20:22:07.801Z,99150.69
2022-11-25T20:24:35.079Z,99163.50
2022-11-25T20:27:02.321Z,99167.88
2022-11-25T20:29:30.766Z,99171.28
2022-11-25T20:32:05.080Z,99169.13
2022-11-25T20:34:42.195Z,99175.25
2022-11-25T20:37:09.599Z,99180.56
2022-11-25T20:39:36.689Z,99176.81
2022-11-25T20:42:03.803Z,99180.06
2022-11-25T20:44:30.998Z,99183.94
2022-11-25T20:46:58.092Z,99189.25
2022-11-25T20:49:29.426Z,99190.38
2022-11-25T20:51:56.612Z,99194.44
2022-11-25T20:54:30.382Z,99195.88
2022-11-25T20:56:57.632Z,99192.94
2022-11-25T20:59:24.817Z,99203.38
2022-11-25T21:01:52.798Z,99201.31
2022-11-25T21:04:20.059Z,99207.97
2022-11-25T21:06:47.207Z,99214.84
2022-11-25T21:09:14.291Z,99211.63
2022-11-25T21:11:41.385Z,99223.25
2022-11-25T21:14:08.730Z,99218.75
2022-11-25T21:16:36.971Z,99225.44
2022-11-25T21:19:05.597Z,99228.47
2022-11-25T21:21:32.703Z,99232.72
2022-11-25T21:23:59.831Z,99232.94
2022-11-25T21:26:27.743Z,99234.47
2022-11-25T21:28:54.914Z,99236.16
2022-11-25T21:31:22.141Z,99225.81
2022-11-25T21:33:49.258Z,99236.38
2022-11-25T21:36:16.326Z,99244.53
2022-11-25T21:38:44.049Z,99250.88
2022-11-25T21:41:11.232Z,99240.84
2022-11-25T21:43:38.311Z,99247.72
2022-11-25T21:46:05.401Z,99250.25
2022-11-25T21:48:32.564Z,99243.13
2022-11-25T21:50:59.655Z,99243.75
2022-11-25T21:53:26.782Z,99251.41
2022-11-25T21:55:54.080Z,99252.94
2022-11-25T21:58:21.464Z,99258.91
2022-11-25T22:00:51.159Z,99258.81
2022-11-25T22:03:18.470Z,99254.84
2022-11-25T22:05:45.568Z,99255.75
2022-11-25T22:08:12.641Z,99264.66
2022-11-25T22:10:39.745Z,99260.25
2022-11-25T22:13:06.940Z,99267.47
2022-11-25T22:15:34.080Z,99261.28
2022-11-25T22:18:01.166Z,99269.00
2022-11-25T22:20:28.283Z,99270.41
2022-11-25T22:22:55.407Z,99272.66
2022-11-25T22:25:22.752Z,99275.19
2022-11-25T22:27:49.839Z,99277.78
2022-11-25T22:30:17.336Z,99288.31
2022-11-25T22:32:44.515Z,99280.69
2022-11-25T22:35:11.611Z,99281.81
2022-11-25T22:37:38.710Z,99287.16
2022-11-25T22:40:05.776Z,99288.09
2022-11-25T22:42:32.853Z,99285.91
2022-11-25T22:44:59.968Z,99294.44
2022-11-25T22:47:27.100Z,99301.97
2022-11-25T22:49:54.223Z,99301.13
2022-11-25T22:52:21.405Z,99295.19
2022-11-25T22:54:48.492Z,99307.91
2022-11-25T22:57:15.564Z,99310.06
2022-11-25T22:59:43.196Z,99312.78
2022-11-25T23:02:10.329Z,99311.31
2022-11-25T23:04:37.695Z,99319.41
2022-11-25T23:07:04.984Z,99318.59
2022-11-25T23:09:32.047Z,99320.06
2022-11-25T23:11:59.153Z,99320.06
2022-11-25T23:14:26.212Z,99319.72
2022-11-25T23:16:53.319Z,99314.81
2022-11-25T23:19:20.401Z,99327.97
2022-11-25T23:21:47.481Z,99326.97
2022-11-25T23:24:14.548Z,99323.50
2022-11-25T23:26:41.640Z,99332.44
2022-11-25T23:29:08.764Z,99333.44
2022-11-25T23:31:35.966Z,99331.34
2022-11-25T23:34:03.108Z,99325.50
2022-11-25T23:36:30.170Z,99327.38
2022-11-25T23:38:57.242Z,99327.81
2022-11-25T23:41:24.326Z,99327.19
2022-11-25T23:43:51.466Z,99329.88
2022-11-25T23:46:18.601Z,99331.00
2022-11-25T23:48:45.784Z,99328.22
2022-11-25T23:51:12.889Z,99331.75
2022-11-25T23:53:39.960Z,99332.78
2022-11-25T23:56:07.029Z,99335.50
2022-11-25T23:58:34.125Z,99336.53
